createdAt,value
2023-12-10T00:02:10.070Z,2.00
2023-12-10T00:05:16.110Z,2.30
2023-12-10T00:08:23.950Z,2.10
2023-12-10T00:11:23.792Z,2.15
2023-12-10T00:14:25.013Z,2.10
2023-12-10T00:17:32.010Z,1.90
2023-12-10T00:20:37.966Z,2.15
2023-12-10T00:23:45.993Z,2.20
2023-12-10T00:26:53.016Z,2.10
2023-12-10T00:30:00.041Z,1.75
2023-12-10T00:33:07.121Z,1.90
2023-12-10T00:36:14.040Z,2.00
2023-12-10T00:39:22.047Z,2.20
2023-12-10T00:42:28.450Z,2.38
2023-12-10T00:45:37.041Z,2.70
2023-12-10T00:48:44.092Z,2.70
2023-12-10T00:51:51.604Z,3.10
2023-12-10T00:54:58.156Z,2.60
2023-12-10T00:58:06.019Z,2.53
2023-12-10T01:01:14.121Z,2.10
2023-12-10T01:04:23.079Z,2.30
2023-12-10T01:07:29.044Z,1.88
2023-12-10T01:10:35.984Z,2.00
2023-12-10T01:13:43.062Z,2.22
2023-12-10T01:16:52.056Z,2.30
2023-12-10T01:19:59.006Z,2.50
2023-12-10T01:23:06.012Z,2.38
2023-12-10T01:26:16.062Z,2.47
2023-12-10T01:29:15.040Z,2.17
2023-12-10T01:32:25.083Z,2.20
2023-12-10T01:35:31.285Z,2.05
2023-12-10T01:38:39.038Z,2.08
2023-12-10T01:41:45.164Z,2.20
2023-12-10T01:44:52.032Z,2.10
2023-12-10T01:48:01.163Z,1.98
2023-12-10T01:51:07.025Z,1.92
2023-12-10T01:54:16.052Z,2.15
2023-12-10T01:57:22.111Z,1.83
2023-12-10T02:00:31.144Z,2.10
2023-12-10T02:03:40.199Z,2.33
2023-12-10T02:06:47.269Z,2.30
2023-12-10T02:09:54.079Z,2.33
2023-12-10T02:13:02.175Z,2.22
2023-12-10T02:16:11.074Z,2.17
2023-12-10T02:19:18.133Z,2.10
2023-12-10T02:22:25.106Z,2.00
2023-12-10T02:25:32.132Z,2.28
2023-12-10T02:28:40.046Z,1.85
2023-12-10T02:31:48.161Z,1.75
2023-12-10T02:34:54.065Z,2.13
2023-12-10T02:38:00.189Z,2.25
2023-12-10T02:41:06.108Z,1.80
2023-12-10T02:44:16.049Z,1.88
2023-12-10T02:47:23.193Z,1.70
2023-12-10T02:50:30.084Z,2.15
2023-12-10T02:53:36.089Z,2.10
2023-12-10T02:56:44.078Z,2.05
2023-12-10T02:59:53.100Z,2.13
2023-12-10T03:03:00.139Z,2.00
2023-12-10T03:06:07.104Z,2.00
2023-12-10T03:09:15.132Z,2.03
2023-12-10T03:12:21.182Z,2.08
2023-12-10T03:15:30.102Z,2.00
2023-12-10T03:18:37.289Z,2.08
2023-12-10T03:21:44.135Z,1.95
2023-12-10T03:24:54.054Z,1.95
2023-12-10T03:28:00.300Z,1.90
2023-12-10T03:31:10.152Z,1.90
2023-12-10T03:34:16.202Z,1.70
2023-12-10T03:37:24.137Z,1.67
2023-12-10T03:40:31.114Z,1.85
2023-12-10T03:43:37.234Z,1.63
2023-12-10T03:46:47.106Z,2.10
2023-12-10T03:49:54.274Z,1.80
2023-12-10T03:53:02.192Z,1.90
2023-12-10T03:56:08.129Z,1.95
2023-12-10T03:59:14.128Z,2.45
2023-12-10T04:02:23.151Z,2.30
2023-12-10T04:05:29.199Z,2.08
2023-12-10T04:08:35.128Z,1.98
2023-12-10T04:11:41.244Z,2.22
2023-12-10T04:14:47.119Z,2.30
2023-12-10T04:17:55.157Z,2.10
2023-12-10T04:21:01.146Z,2.03
2023-12-10T04:24:07.197Z,2.17
2023-12-10T04:27:15.215Z,1.67
2023-12-10T04:30:21.217Z,2.22
2023-12-10T04:33:30.333Z,1.95
2023-12-10T04:36:37.185Z,2.17
2023-12-10T04:39:43.222Z,2.20
2023-12-10T04:42:51.003Z,2.05
2023-12-10T04:45:52.028Z,1.95
2023-12-10T04:48:54.412Z,2.40
2023-12-10T04:51:55.849Z,2.25
2023-12-10T04:55:04.220Z,2.28
2023-12-10T04:58:10.178Z,2.40
2023-12-10T05:01:16.367Z,2.60
2023-12-10T05:04:27.320Z,2.25
2023-12-10T05:07:35.186Z,2.60
2023-12-10T05:10:42.238Z,2.65
2023-12-10T05:13:49.188Z,2.65
2023-12-10T05:16:55.211Z,2.65
2023-12-10T05:20:04.234Z,2.50
2023-12-10T05:23:12.207Z,2.85
2023-12-10T05:26:18.188Z,2.50
2023-12-10T05:29:25.207Z,2.58
2023-12-10T05:32:31.449Z,2.63
2023-12-10T05:35:41.212Z,2.42
2023-12-10T05:38:47.221Z,2.70
2023-12-10T05:41:54.213Z,2.80
2023-12-10T05:45:00.220Z,2.50
2023-12-10T05:48:07.276Z,2.45
2023-12-10T05:51:15.252Z,2.70
2023-12-10T05:54:22.280Z,2.78
2023-12-10T05:57:29.288Z,3.58
2023-12-10T06:00:35.433Z,3.17
2023-12-10T06:03:43.283Z,3.55
2023-12-10T06:06:50.264Z,4.38
2023-12-10T06:09:59.291Z,3.28
2023-12-10T06:13:07.349Z,4.07
2023-12-10T06:16:16.260Z,3.90
2023-12-10T06:19:22.407Z,4.10
2023-12-10T06:22:30.523Z,4.80
2023-12-10T06:25:38.233Z,7.93
2023-12-10T06:28:45.222Z,7.28
2023-12-10T06:31:52.222Z,8.07
2023-12-10T06:34:59.218Z,9.38
2023-12-10T06:38:07.382Z,9.65
2023-12-10T06:41:15.229Z,8.98
2023-12-10T06:44:24.277Z,8.15
2023-12-10T06:47:30.312Z,8.82
2023-12-10T06:50:36.288Z,9.98
2023-12-10T06:53:45.428Z,11.32
2023-12-10T06:56:53.262Z,13.65
2023-12-10T06:59:59.289Z,11.43
2023-12-10T07:03:05.279Z,13.50
2023-12-10T07:06:13.266Z,14.05
2023-12-10T07:09:22.396Z,14.32
2023-12-10T07:12:29.651Z,13.20
2023-12-10T07:15:38.372Z,13.80
2023-12-10T07:18:45.476Z,12.88
2023-12-10T07:21:52.300Z,13.20
2023-12-10T07:25:01.352Z,12.85
2023-12-10T07:28:01.149Z,13.57
2023-12-10T07:31:01.334Z,13.63
2023-12-10T07:34:07.397Z,13.13
2023-12-10T07:37:14.383Z,12.90
2023-12-10T07:40:23.297Z,13.10
2023-12-10T07:43:30.286Z,13.52
2023-12-10T07:46:36.286Z,12.85
2023-12-10T07:49:42.387Z,12.00
2023-12-10T07:52:42.142Z,12.70
2023-12-10T07:55:43.309Z,12.80
2023-12-10T07:58:50.302Z,12.38
2023-12-10T08:01:56.376Z,12.23
2023-12-10T08:05:04.412Z,11.23
2023-12-10T08:08:12.305Z,11.68
2023-12-10T08:11:20.340Z,11.52
2023-12-10T08:14:26.368Z,11.65
2023-12-10T08:17:35.134Z,12.50
2023-12-10T08:20:43.116Z,12.02
2023-12-10T08:23:50.080Z,12.13
2023-12-10T08:26:57.114Z,12.02
2023-12-10T08:30:05.090Z,13.73
2023-12-10T08:33:11.223Z,11.13
2023-12-10T08:36:18.087Z,10.48
2023-12-10T08:39:26.137Z,10.68
2023-12-10T08:42:34.385Z,9.82
2023-12-10T08:45:42.108Z,8.20
2023-12-10T08:48:50.229Z,8.23
2023-12-10T08:51:59.112Z,7.40
2023-12-10T08:55:05.204Z,8.45
2023-12-10T08:58:14.189Z,7.47
2023-12-10T09:01:21.295Z,7.50
2023-12-10T09:04:29.513Z,7.35
2023-12-10T09:07:37.189Z,7.35
2023-12-10T09:10:43.108Z,7.53
2023-12-10T09:13:51.110Z,8.18
2023-12-10T09:16:58.106Z,8.93
2023-12-10T09:20:04.133Z,7.38
2023-12-10T09:23:10.144Z,6.85
2023-12-10T09:26:17.248Z,7.22
2023-12-10T09:29:26.093Z,6.97
2023-12-10T09:32:36.223Z,7.80
2023-12-10T09:35:43.124Z,11.52
2023-12-10T09:38:51.102Z,8.10
2023-12-10T09:41:58.106Z,8.20
2023-12-10T09:45:08.143Z,8.43
2023-12-10T09:48:16.202Z,8.30
2023-12-10T09:51:24.153Z,8.68
2023-12-10T09:54:31.345Z,10.85
2023-12-10T09:57:40.264Z,8.90
2023-12-10T10:00:50.861Z,8.52
2023-12-10T10:03:57.912Z,8.60
2023-12-10T10:07:03.926Z,8.40
2023-12-10T10:10:14.831Z,8.88
2023-12-10T10:13:24.858Z,7.97
2023-12-10T10:16:33.964Z,7.70
2023-12-10T10:19:40.951Z,7.25
2023-12-10T10:22:47.879Z,7.18
2023-12-10T10:25:54.816Z,7.22
2023-12-10T10:29:03.821Z,11.40
2023-12-10T10:32:11.829Z,7.45
2023-12-10T10:35:21.896Z,6.57
2023-12-10T10:38:23.644Z,7.43
2023-12-10T10:41:24.901Z,7.47
2023-12-10T10:44:24.949Z,6.43
2023-12-10T10:47:29.104Z,6.35
2023-12-10T10:50:37.929Z,6.65
2023-12-10T10:53:43.852Z,5.63
2023-12-10T10:56:50.869Z,5.93
2023-12-10T10:59:56.864Z,5.40
2023-12-10T11:03:06.075Z,5.95
2023-12-10T11:06:13.961Z,6.00
2023-12-10T11:09:19.911Z,5.55
2023-12-10T11:12:26.926Z,5.30
2023-12-10T11:15:41.921Z,4.93
2023-12-10T11:18:52.159Z,5.20
2023-12-10T11:21:58.884Z,4.65
2023-12-10T11:25:07.897Z,5.22
2023-12-10T11:28:14.918Z,8.32
2023-12-10T11:31:21.887Z,5.43
2023-12-10T11:34:31.962Z,5.05
2023-12-10T11:37:37.921Z,4.32
2023-12-10T11:40:46.896Z,4.07
2023-12-10T11:43:55.905Z,8.73
2023-12-10T11:47:00.278Z,5.25
2023-12-10T11:50:03.887Z,4.20
2023-12-10T11:53:11.912Z,4.28
2023-12-10T11:56:17.924Z,4.85
2023-12-10T11:59:24.939Z,4.00
2023-12-10T12:02:32.179Z,4.00
2023-12-10T12:05:40.923Z,4.05
2023-12-10T12:08:47.918Z,3.70
2023-12-10T12:12:03.007Z,4.95
2023-12-10T12:15:09.890Z,4.00
2023-12-10T12:18:16.983Z,3.97
2023-12-10T12:21:25.014Z,3.67
2023-12-10T12:24:31.141Z,3.88
2023-12-10T12:27:38.924Z,3.63
2023-12-10T12:30:49.205Z,3.60
2023-12-10T12:33:58.040Z,3.63
2023-12-10T12:37:08.575Z,3.38
2023-12-10T12:40:15.991Z,3.67
2023-12-10T12:43:22.659Z,3.58
2023-12-10T12:46:29.598Z,3.72
2023-12-10T12:49:35.625Z,3.95
2023-12-10T12:52:50.413Z,3.85
2023-12-10T12:55:59.617Z,4.22
2023-12-10T12:59:05.623Z,3.80
2023-12-10T13:02:21.632Z,3.65
2023-12-10T13:05:28.700Z,4.43
2023-12-10T13:08:36.673Z,3.33
2023-12-10T13:11:47.712Z,3.92
2023-12-10T13:15:04.602Z,3.83
2023-12-10T13:18:12.002Z,3.65
2023-12-10T13:21:19.763Z,3.53
2023-12-10T13:24:30.672Z,3.72
2023-12-10T13:28:00.621Z,3.95
2023-12-10T13:31:06.612Z,3.53
2023-12-10T13:34:13.763Z,3.65
2023-12-10T13:37:21.632Z,3.33
2023-12-10T13:40:29.625Z,4.10
2023-12-10T13:43:36.623Z,3.47
2023-12-10T13:46:54.882Z,3.92
2023-12-10T13:50:01.711Z,3.47
2023-12-10T13:53:01.629Z,3.78
2023-12-10T13:56:11.729Z,3.45
2023-12-10T13:59:17.721Z,3.53
2023-12-10T14:02:24.644Z,4.13
2023-12-10T14:05:32.717Z,3.42
2023-12-10T14:08:40.675Z,3.53
2023-12-10T14:11:48.647Z,3.70
2023-12-10T14:14:54.652Z,3.55
2023-12-10T14:18:00.740Z,3.67
2023-12-10T14:21:08.746Z,3.63
2023-12-10T14:24:15.689Z,3.97
2023-12-10T14:27:25.755Z,3.95
2023-12-10T14:30:32.769Z,3.45
2023-12-10T14:33:42.785Z,4.07
2023-12-10T14:36:49.715Z,4.05
2023-12-10T14:39:55.745Z,3.90
2023-12-10T14:43:03.875Z,4.00
2023-12-10T14:46:11.721Z,4.15
2023-12-10T14:49:20.887Z,3.38
2023-12-10T14:52:28.690Z,3.80
2023-12-10T14:55:35.699Z,4.03
2023-12-10T14:58:43.793Z,4.25
2023-12-10T15:02:01.337Z,4.32
2023-12-10T15:05:14.692Z,3.78
2023-12-10T15:08:23.727Z,3.90
2023-12-10T15:11:30.729Z,3.78
2023-12-10T15:14:39.747Z,3.60
2023-12-10T15:17:46.810Z,3.55
2023-12-10T15:20:53.674Z,4.20
2023-12-10T15:24:00.716Z,3.50
2023-12-10T15:27:07.697Z,4.25
2023-12-10T15:30:17.699Z,3.85
2023-12-10T15:33:25.718Z,3.63
2023-12-10T15:36:31.895Z,4.35
2023-12-10T15:39:39.794Z,3.60
2023-12-10T15:42:48.802Z,4.03
2023-12-10T15:45:57.743Z,4.13
2023-12-10T15:49:05.979Z,4.00
2023-12-10T15:52:18.207Z,4.22
2023-12-10T15:55:30.759Z,4.15
2023-12-10T15:58:36.779Z,3.63
2023-12-10T16:01:44.810Z,3.75
2023-12-10T16:04:51.725Z,4.20
2023-12-10T16:08:00.235Z,4.32
2023-12-10T16:11:00.595Z,4.07
2023-12-10T16:14:00.751Z,4.10
2023-12-10T16:17:08.779Z,3.88
2023-12-10T16:20:16.975Z,4.07
2023-12-10T16:23:24.752Z,4.07
2023-12-10T16:26:32.763Z,3.85
2023-12-10T16:29:38.754Z,3.53
2023-12-10T16:32:47.148Z,4.15
2023-12-10T16:35:54.741Z,4.30
2023-12-10T16:39:01.739Z,4.00
2023-12-10T16:42:08.750Z,4.00
2023-12-10T16:45:14.764Z,4.38
2023-12-10T16:48:22.865Z,4.30
2023-12-10T16:51:30.909Z,3.70
2023-12-10T16:54:38.962Z,3.72
2023-12-10T16:57:46.874Z,4.03
2023-12-10T17:00:53.920Z,3.88
2023-12-10T17:04:02.825Z,3.55
2023-12-10T17:07:09.838Z,4.53
2023-12-10T17:10:15.771Z,3.80
2023-12-10T17:13:23.902Z,3.72
2023-12-10T17:16:30.859Z,3.85
2023-12-10T17:19:38.899Z,4.13
2023-12-10T17:22:46.800Z,3.55
2023-12-10T17:25:53.798Z,4.00
2023-12-10T17:28:59.777Z,4.20
2023-12-10T17:32:05.813Z,3.83
2023-12-10T17:35:13.775Z,4.22
2023-12-10T17:38:20.791Z,4.18
2023-12-10T17:41:28.790Z,3.55
2023-12-10T17:44:43.546Z,3.75
2023-12-10T17:47:56.853Z,3.67
2023-12-10T17:51:09.896Z,4.00
2023-12-10T17:54:25.812Z,4.20
2023-12-10T17:57:32.158Z,3.70
2023-12-10T18:00:39.978Z,3.53
2023-12-10T18:03:46.919Z,3.65
2023-12-10T18:06:56.857Z,3.70
2023-12-10T18:10:04.870Z,3.22
2023-12-10T18:13:10.884Z,3.30
2023-12-10T18:16:16.856Z,3.63
2023-12-10T18:19:23.990Z,3.55
2023-12-10T18:22:34.046Z,3.92
2023-12-10T18:25:41.860Z,3.80
2023-12-10T18:28:48.823Z,3.50
2023-12-10T18:31:48.860Z,3.65
2023-12-10T18:34:57.842Z,4.20
2023-12-10T18:37:58.618Z,3.15
2023-12-10T18:40:57.836Z,3.35
2023-12-10T18:44:03.872Z,3.50
2023-12-10T18:47:12.848Z,3.40
2023-12-10T18:50:19.865Z,3.45
2023-12-10T18:53:27.857Z,3.53
2023-12-10T18:56:34.963Z,3.40
2023-12-10T18:59:42.825Z,3.70
2023-12-10T19:02:49.913Z,3.47
2023-12-10T19:05:55.853Z,4.00
2023-12-10T19:09:03.826Z,3.65
2023-12-10T19:12:10.950Z,3.70
2023-12-10T19:15:21.649Z,2.83
2023-12-10T19:18:27.974Z,2.97
2023-12-10T19:21:36.895Z,3.30
2023-12-10T19:24:45.919Z,3.58
2023-12-10T19:27:51.931Z,3.92
2023-12-10T19:31:01.987Z,3.70
2023-12-10T19:34:09.009Z,5.57
2023-12-10T19:37:15.962Z,8.95
2023-12-10T19:40:24.865Z,4.10
2023-12-10T19:43:24.901Z,3.28
2023-12-10T19:46:24.796Z,3.67
2023-12-10T19:49:23.915Z,3.42
2023-12-10T19:52:31.882Z,3.40
2023-12-10T19:55:38.915Z,3.53
2023-12-10T19:58:44.898Z,3.53
2023-12-10T20:01:50.981Z,4.57
2023-12-10T20:04:59.997Z,4.57
2023-12-10T20:08:06.986Z,3.47
2023-12-10T20:11:15.904Z,3.35
2023-12-10T20:14:21.897Z,3.20
2023-12-10T20:17:30.282Z,3.20
2023-12-10T20:20:36.928Z,3.83
2023-12-10T20:23:43.887Z,3.50
2023-12-10T20:26:57.962Z,3.47
2023-12-10T20:30:03.901Z,3.22
2023-12-10T20:33:12.095Z,3.85
2023-12-10T20:36:21.930Z,2.78
2023-12-10T20:39:29.921Z,3.20
2023-12-10T20:42:38.994Z,3.40
2023-12-10T20:45:47.007Z,3.60
2023-12-10T20:48:55.011Z,3.03
2023-12-10T20:52:03.149Z,3.33
2023-12-10T20:55:11.957Z,3.28
2023-12-10T20:58:19.949Z,3.17
2023-12-10T21:01:27.111Z,3.75
2023-12-10T21:04:34.964Z,3.00
2023-12-10T21:07:40.974Z,2.95
2023-12-10T21:10:47.933Z,3.00
2023-12-10T21:13:55.956Z,3.10
2023-12-10T21:17:04.001Z,3.67
2023-12-10T21:20:12.955Z,3.42
2023-12-10T21:23:19.028Z,3.25
2023-12-10T21:26:26.048Z,3.30
2023-12-10T21:29:33.968Z,3.30
2023-12-10T21:32:41.964Z,3.45
2023-12-10T21:35:47.996Z,2.85
2023-12-10T21:38:54.989Z,3.72
2023-12-10T21:42:01.023Z,3.50
2023-12-10T21:45:08.954Z,5.10
2023-12-10T21:48:15.162Z,4.03
2023-12-10T21:51:23.018Z,4.18
2023-12-10T21:54:30.047Z,3.75
2023-12-10T21:57:37.014Z,3.63
2023-12-10T22:00:45.080Z,3.47
2023-12-10T22:03:54.123Z,3.97
2023-12-10T22:07:01.029Z,4.32
2023-12-10T22:10:08.198Z,3.67
2023-12-10T22:13:16.055Z,3.55
2023-12-10T22:16:24.995Z,3.05
2023-12-10T22:19:31.041Z,3.72
2023-12-10T22:22:39.471Z,3.20
2023-12-10T22:25:51.010Z,3.30
2023-12-10T22:28:57.993Z,4.10
2023-12-10T22:32:06.008Z,3.00
2023-12-10T22:35:12.012Z,3.60
2023-12-10T22:38:18.058Z,3.33
2023-12-10T22:41:25.014Z,3.70
2023-12-10T22:44:31.981Z,3.20
2023-12-10T22:47:39.209Z,3.47
2023-12-10T22:50:46.115Z,3.90
2023-12-10T22:53:55.015Z,3.13
2023-12-10T22:57:01.087Z,3.42
2023-12-10T23:00:08.026Z,3.88
2023-12-10T23:03:16.091Z,3.15
2023-12-10T23:06:24.021Z,3.70
2023-12-10T23:09:30.102Z,3.90
2023-12-10T23:12:36.047Z,3.80
2023-12-10T23:15:42.113Z,4.13
2023-12-10T23:18:50.105Z,3.40
2023-12-10T23:21:57.178Z,3.83
2023-12-10T23:25:07.194Z,3.65
2023-12-10T23:28:14.898Z,3.75
2023-12-10T23:31:21.056Z,3.80
2023-12-10T23:34:29.089Z,3.70
2023-12-10T23:37:35.076Z,4.82
2023-12-10T23:40:43.063Z,7.55
2023-12-10T23:43:51.081Z,3.58
2023-12-10T23:46:58.036Z,3.80
2023-12-10T23:50:12.077Z,3.35
2023-12-10T23:53:13.582Z,3.45
2023-12-10T23:56:15.144Z,3.40
2023-12-10T23:59:22.084Z,3.55
